Time;durP1;ratioP1;P1;durP2;ratioP2;P2;SDS_P1;SDS_P2;PMS_P1;PMS_P2;Temp;Humidity;BMP_temperature;BMP_pressure;BME280_temperature;BME280_humidity;BME280_pressure;Samples;Min_cycle;Max_cycle;Signal;HPM_P1;HPM_P2
2023/01/23 00:00:29;;;;;;;;;;;;;;;;;;5072528;28;19912;-81
2023/01/23 00:02:55;;;;;;;;;;;;;;;;;;5085543;28;19961;-81
2023/01/23 00:05:20;;;;;;;;;;;;;;;;;;5072083;28;19955;-81
2023/01/23 00:07:45;;;;;;;;;;;;;;;;;;5089987;28;19927;-80
2023/01/23 00:10:10;;;;;;;;;;;;;;;;;;5073041;28;19946;-80
2023/01/23 00:12:35;;;;;;;;;;;;;;;;;;5088791;28;19916;-81
2023/01/23 00:15:00;;;;;;;;;;;;;;;;;;5072103;28;19908;-81
2023/01/23 00:17:28;;;;;;;;;;;;;;;;;;5088886;28;19951;-81
2023/01/23 00:19:53;;;;;;;;;;;;;;;;;;5089417;28;19995;-81
2023/01/23 00:22:19;;;;;;;;;;;;;;;;;;5067229;28;20053;-81
2023/01/23 00:24:44;;;;;;;;;;;;;;;;;;5071621;28;20374;-82
2023/01/23 00:27:09;;;;;;;;;;;;;;;;;;5088276;28;20137;-82
2023/01/23 00:29:34;;;;;;;;;;;;;;;;;;5063181;28;20298;-82
2023/01/23 00:31:59;;;;;;;;;;;;;;;;;;5090481;28;19916;-81
2023/01/23 00:34:24;;;;;;;;;;;;;;;;;;5072557;28;19958;-81
2023/01/23 00:36:49;;;;;;;;;;;;;;;;;;5077236;28;19920;-82
2023/01/23 00:39:15;;;;;;;;;;;;;;;;;;5089391;28;19916;-82
2023/01/23 00:41:40;;;;;;;;;;;;;;;;;;5071977;28;19908;-81
2023/01/23 00:44:05;;;;;;;;;;;;;;;;;;5071564;28;19920;-82
2023/01/23 00:46:30;;;;;;;;;;;;;;;;;;5089333;28;20320;-81
2023/01/23 00:48:55;;;;;;;;;;;;;;;;;;5074435;28;20398;-81
2023/01/23 00:51:21;;;;;;;;;;;;;;;;;;5073131;28;19919;-80
2023/01/23 00:53:46;;;;;;;;;;;;;;;;;;5070538;28;20332;-81
2023/01/23 00:56:11;;;;;;;;;;;;;;;;;;5073771;28;20328;-81
2023/01/23 00:58:36;;;;;;;;;;;;;;;;;;5070100;28;20015;-81
2023/01/23 01:01:01;;;;;;;;;;;;;;;;;;5087252;28;20201;-82
2023/01/23 01:03:26;;;;;;;;;;;;;;;;;;5073639;28;20014;-81
2023/01/23 01:05:51;;;;;;;;;;;;;;;;;;5091257;28;20267;-80
2023/01/23 01:08:16;;;;;;;;;;;;;;;;;;5072954;28;20316;-81
2023/01/23 01:10:42;;;;;;;;;;;;;;;;;;5089914;28;19916;-80
2023/01/23 01:13:07;;;;;;;;;;;;;;;;;;5073187;28;20354;-81
2023/01/23 01:15:32;;;;;;;;;;;;;;;;;;5083999;28;20435;-82
2023/01/23 01:17:57;;;;;;;;;;;;;;;;;;5091399;28;19919;-81
2023/01/23 01:20:24;;;;;;;;;;;;;;;;;;5093177;28;19935;-81
2023/01/23 01:22:49;;;;;;;;;;;;;;;;;;5075745;28;20259;-81
2023/01/23 01:25:15;;;;;;;;;;;;;;;;;;5080431;28;19919;-81
2023/01/23 01:27:40;;;;;;;;;;;;;;;;;;5073614;28;19995;-81
2023/01/23 01:30:05;;;;;;;;;;;;;;;;;;5076549;28;19957;-81
2023/01/23 01:32:30;;;;;;;;;;;;;;;;;;5092064;28;20064;-81
2023/01/23 01:34:55;;;;;;;;;;;;;;;;;;5092625;28;20006;-81
2023/01/23 01:37:22;;;;;;;;;;;;;;;;;;5088422;28;19912;-81
2023/01/23 01:39:47;;;;;;;;;;;;;;;;;;5075879;28;20540;-81
2023/01/23 01:42:12;;;;;;;;;;;;;;;;;;5081259;28;19908;-81
2023/01/23 01:44:38;;;;;;;;;;;;;;;;;;5090643;28;20753;-82
2023/01/23 01:47:03;;;;;;;;;;;;;;;;;;5073900;28;20332;-81
2023/01/23 01:49:29;;;;;;;;;;;;;;;;;;5074663;28;20371;-81
2023/01/23 01:51:54;;;;;;;;;;;;;;;;;;5073210;28;20278;-81
2023/01/23 01:54:20;;;;;;;;;;;;;;;;;;5081602;28;19912;-81
2023/01/23 01:56:45;;;;;;;;;;;;;;;;;;5071641;28;20259;-81
2023/01/23 01:59:10;;;;;;;;;;;;;;;;;;5084375;28;20401;-81
2023/01/23 02:01:35;;;;;;;;;;;;;;;;;;5089714;28;19916;-81
2023/01/23 02:04:01;;;;;;;;;;;;;;;;;;5073947;28;20004;-81
2023/01/23 02:06:26;;;;;;;;;;;;;;;;;;5072877;28;19916;-81
2023/01/23 02:08:51;;;;;;;;;;;;;;;;;;5090835;28;20290;-81
2023/01/23 02:11:17;;;;;;;;;;;;;;;;;;5071782;28;19923;-81
2023/01/23 02:13:44;;;;;;;;;;;;;;;;;;5092054;28;19912;-81
2023/01/23 02:16:10;;;;;;;;;;;;;;;;;;5091418;28;19965;-81
2023/01/23 02:18:35;;;;;;;;;;;;;;;;;;5092128;28;19924;-81
2023/01/23 02:21:00;;;;;;;;;;;;;;;;;;5091769;28;20359;-81
2023/01/23 02:23:25;;;;;;;;;;;;;;;;;;5075176;28;20095;-79
2023/01/23 02:25:52;;;;;;;;;;;;;;;;;;5073574;28;19918;-80
2023/01/23 02:28:17;;;;;;;;;;;;;;;;;;5091009;28;19919;-80
2023/01/23 02:30:42;;;;;;;;;;;;;;;;;;5088709;28;19920;-79
2023/01/23 02:33:07;;;;;;;;;;;;;;;;;;5093546;28;19908;-80
2023/01/23 02:35:32;;;;;;;;;;;;;;;;;;5088056;28;20379;-80
2023/01/23 02:37:58;;;;;;;;;;;;;;;;;;5073722;28;19916;-81
2023/01/23 02:40:23;;;;;;;;;;;;;;;;;;5091013;28;19917;-81
2023/01/23 02:42:49;;;;;;;;;;;;;;;;;;5082143;28;19912;-81
2023/01/23 02:45:14;;;;;;;;;;;;;;;;;;5073580;28;19949;-80
2023/01/23 02:47:39;;;;;;;;;;;;;;;;;;5090831;28;19960;-81
2023/01/23 02:50:04;;;;;;;;;;;;;;;;;;5092079;28;19924;-81
2023/01/23 02:52:30;;;;;;;;;;;;;;;;;;5090441;28;19958;-81
2023/01/23 02:54:55;;;;;;;;;;;;;;;;;;5074463;28;19920;-82
2023/01/23 02:57:21;;;;;;;;;;;;;;;;;;5089109;28;19965;-81
2023/01/23 03:02:30;;;;;;;;;;;;;;;;;;5077923;28;20320;-81
2023/01/23 03:04:55;;;;;;;;;;;;;;;;;;5090599;28;19916;-81
2023/01/23 03:07:20;;;;;;;;;;;;;;;;;;5071116;28;19952;-81
2023/01/23 03:09:47;;;;;;;;;;;;;;;;;;5091654;28;20451;-81
2023/01/23 03:12:13;;;;;;;;;;;;;;;;;;5071130;28;19919;-81
2023/01/23 03:14:39;;;;;;;;;;;;;;;;;;5063328;28;19912;-80
2023/01/23 03:17:04;;;;;;;;;;;;;;;;;;5088587;28;19993;-80
2023/01/23 03:19:30;;;;;;;;;;;;;;;;;;5074396;28;19952;-81
2023/01/23 03:21:55;;;;;;;;;;;;;;;;;;5078553;28;20077;-80
2023/01/23 03:24:20;;;;;;;;;;;;;;;;;;5071890;28;19927;-80
2023/01/23 03:26:45;;;;;;;;;;;;;;;;;;5090500;28;19916;-80
2023/01/23 03:31:54;;;;;;;;;;;;;;;;;;5089755;28;20022;-81
2023/01/23 03:34:21;;;;;;;;;;;;;;;;;;5090387;28;19999;-81
2023/01/23 03:36:46;;;;;;;;;;;;;;;;;;5070803;28;19964;-81
2023/01/23 03:41:55;;;;;;;;;;;;;;;;;;5088924;28;19923;-80
2023/01/23 03:44:20;;;;;;;;;;;;;;;;;;5073323;28;19912;-81
2023/01/23 03:46:45;;;;;;;;;;;;;;;;;;5073588;28;20338;-81
2023/01/23 03:49:10;;;;;;;;;;;;;;;;;;5088516;28;20015;-81
2023/01/23 03:51:35;;;;;;;;;;;;;;;;;;5071623;28;20006;-82
2023/01/23 03:54:01;;;;;;;;;;;;;;;;;;5073299;28;19912;-81
2023/01/23 03:56:26;;;;;;;;;;;;;;;;;;5089147;28;19916;-81
2023/01/23 03:58:51;;;;;;;;;;;;;;;;;;5089827;28;19966;-81
2023/01/23 04:01:16;;;;;;;;;;;;;;;;;;5088707;28;20030;-82
2023/01/23 04:03:41;;;;;;;;;;;;;;;;;;5070550;28;19918;-81
2023/01/23 04:06:07;;;;;;;;;;;;;;;;;;5090344;28;20041;-81
2023/01/23 04:08:32;;;;;;;;;;;;;;;;;;5069957;28;20370;-81
2023/01/23 04:10:57;;;;;;;;;;;;;;;;;;5085289;28;20382;-81
2023/01/23 04:13:22;;;;;;;;;;;;;;;;;;5071026;28;19938;-81
2023/01/23 04:15:47;;;;;;;;;;;;;;;;;;5072706;28;19935;-81
2023/01/23 04:18:12;;;;;;;;;;;;;;;;;;5071130;28;19920;-81
2023/01/23 04:20:38;;;;;;;;;;;;;;;;;;5090902;28;20008;-81
2023/01/23 04:23:03;;;;;;;;;;;;;;;;;;5070420;28;19916;-80
2023/01/23 04:25:28;;;;;;;;;;;;;;;;;;5070895;28;19913;-80
2023/01/23 04:27:53;;;;;;;;;;;;;;;;;;5070148;28;20409;-81
2023/01/23 04:30:18;;;;;;;;;;;;;;;;;;5073293;28;20289;-81
2023/01/23 04:32:43;;;;;;;;;;;;;;;;;;5074720;28;20407;-81
2023/01/23 04:35:08;;;;;;;;;;;;;;;;;;5058408;28;20388;-82
2023/01/23 04:37:34;;;;;;;;;;;;;;;;;;5062099;28;19921;-81
2023/01/23 04:39:59;;;;;;;;;;;;;;;;;;5075589;28;20001;-81
2023/01/23 04:42:24;;;;;;;;;;;;;;;;;;5055614;28;20371;-81
2023/01/23 04:44:49;;;;;;;;;;;;;;;;;;4990936;28;19957;-82
2023/01/23 04:47:14;;;;;;;;;;;;;;;;;;5048303;28;19910;-81
2023/01/23 04:49:39;;;;;;;;;;;;;;;;;;4991092;28;19951;-81
2023/01/23 04:52:05;;;;;;;;;;;;;;;;;;5057804;28;20341;-80
2023/01/23 04:54:30;;;;;;;;;;;;;;;;;;5056970;28;19972;-81
2023/01/23 04:56:55;;;;;;;;;;;;;;;;;;5058083;28;20410;-80
2023/01/23 04:59:21;;;;;;;;;;;;;;;;;;5055914;28;20492;-80
2023/01/23 05:01:46;;;;;;;;;;;;;;;;;;5058985;28;19921;-80
2023/01/23 05:04:11;;;;;;;;;;;;;;;;;;4987735;28;19918;-81
2023/01/23 05:06:37;;;;;;;;;;;;;;;;;;4996024;28;19936;-81
2023/01/23 05:09:02;;;;;;;;;;;;;;;;;;5056717;28;19978;-80
2023/01/23 05:11:27;;;;;;;;;;;;;;;;;;5058504;28;20268;-81
2023/01/23 05:13:52;;;;;;;;;;;;;;;;;;5052967;28;20288;-81
2023/01/23 05:16:17;;;;;;;;;;;;;;;;;;5048904;28;19920;-81
2023/01/23 05:18:42;;;;;;;;;;;;;;;;;;4991067;28;19914;-81
2023/01/23 05:21:07;;;;;;;;;;;;;;;;;;5055497;28;20056;-81
2023/01/23 05:23:33;;;;;;;;;;;;;;;;;;5057276;28;20283;-81
2023/01/23 05:25:58;;;;;;;;;;;;;;;;;;4989563;28;19922;-81
2023/01/23 05:28:23;;;;;;;;;;;;;;;;;;4986365;28;19914;-81
2023/01/23 05:30:48;;;;;;;;;;;;;;;;;;4990770;28;19918;-80
2023/01/23 05:33:13;;;;;;;;;;;;;;;;;;5046632;28;19956;-80
2023/01/23 05:35:38;;;;;;;;;;;;;;;;;;5057286;28;20397;-80
2023/01/23 05:38:04;;;;;;;;;;;;;;;;;;4989526;28;20402;-80
2023/01/23 05:40:29;;;;;;;;;;;;;;;;;;5053964;28;19914;-80
2023/01/23 05:42:54;;;;;;;;;;;;;;;;;;5054829;28;19913;-79
2023/01/23 05:45:19;;;;;;;;;;;;;;;;;;5073790;28;19922;-81
2023/01/23 05:47:44;;;;;;;;;;;;;;;;;;4990800;28;19922;-81
2023/01/23 05:50:09;;;;;;;;;;;;;;;;;;4990535;28;19971;-82
2023/01/23 05:52:35;;;;;;;;;;;;;;;;;;5056045;28;19918;-80
2023/01/23 05:55:00;;;;;;;;;;;;;;;;;;5054893;28;19914;-80
2023/01/23 05:57:28;;;;;;;;;;;;;;;;;;5054563;28;19921;-80
2023/01/23 05:59:53;;;;;;;;;;;;;;;;;;4990651;28;20425;-81
2023/01/23 06:02:18;;;;;;;;;;;;;;;;;;5058090;28;20347;-83
2023/01/23 06:04:43;;;;;;;;;;;;;;;;;;5059354;28;20276;-79
2023/01/23 06:07:09;;;;;;;;;;;;;;;;;;5051383;28;19921;-80
2023/01/23 06:09:34;;;;;;;;;;;;;;;;;;4991697;28;19914;-80
2023/01/23 06:12:04;;;;;;;;;;;;;;;;;;4990587;28;19936;-81
2023/01/23 06:14:29;;;;;;;;;;;;;;;;;;4990539;28;19945;-81
2023/01/23 06:16:55;;;;;;;;;;;;;;;;;;5059252;28;19985;-81
2023/01/23 06:19:20;;;;;;;;;;;;;;;;;;5054883;28;19917;-80
2023/01/23 06:21:45;;;;;;;;;;;;;;;;;;5059402;28;19937;-81
2023/01/23 06:24:10;;;;;;;;;;;;;;;;;;5063751;28;20389;-81
2023/01/23 06:26:35;;;;;;;;;;;;;;;;;;5009349;28;19913;-81
2023/01/23 06:29:00;;;;;;;;;;;;;;;;;;5041798;28;19998;-80
2023/01/23 06:31:25;;;;;;;;;;;;;;;;;;5075594;28;19908;-80
2023/01/23 06:33:51;;;;;;;;;;;;;;;;;;5075472;28;19908;-80
2023/01/23 06:36:16;;;;;;;;;;;;;;;;;;5093087;28;19912;-80
2023/01/23 06:38:41;;;;;;;;;;;;;;;;;;5064153;28;19920;-80
2023/01/23 06:41:06;;;;;;;;;;;;;;;;;;5088978;28;19916;-80
2023/01/23 06:43:31;;;;;;;;;;;;;;;;;;5088421;28;19935;-80
2023/01/23 06:45:57;;;;;;;;;;;;;;;;;;5091105;28;19916;-80
2023/01/23 06:48:22;;;;;;;;;;;;;;;;;;5091549;28;19916;-80
2023/01/23 06:50:47;;;;;;;;;;;;;;;;;;5077313;28;20018;-80
2023/01/23 06:53:13;;;;;;;;;;;;;;;;;;5090739;28;19919;-84
2023/01/23 06:55:39;;;;;;;;;;;;;;;;;;5091064;28;19935;-80
2023/01/23 06:58:04;;;;;;;;;;;;;;;;;;5084101;28;19922;-80
2023/01/23 07:00:29;;;;;;;;;;;;;;;;;;5089002;28;19908;-80
2023/01/23 07:02:57;;;;;;;;;;;;;;;;;;5091165;28;19944;-80
2023/01/23 07:05:22;;;;;;;;;;;;;;;;;;5074157;28;19920;-80
2023/01/23 07:07:47;;;;;;;;;;;;;;;;;;5072333;28;19913;-80
2023/01/23 07:10:13;;;;;;;;;;;;;;;;;;5071397;28;19921;-82
2023/01/23 07:12:38;;;;;;;;;;;;;;;;;;5073128;28;19965;-80
2023/01/23 07:15:03;;;;;;;;;;;;;;;;;;5087710;28;20025;-80
2023/01/23 07:17:28;;;;;;;;;;;;;;;;;;5089910;28;19915;-80
2023/01/23 07:19:53;;;;;;;;;;;;;;;;;;5088940;28;19917;-80
2023/01/23 07:22:18;;;;;;;;;;;;;;;;;;5073952;28;19916;-79
2023/01/23 07:24:44;;;;;;;;;;;;;;;;;;5074878;28;19908;-80
2023/01/23 07:27:09;;;;;;;;;;;;;;;;;;5092761;28;20259;-79
2023/01/23 07:29:34;;;;;;;;;;;;;;;;;;5075046;28;19954;-80
2023/01/23 07:32:00;;;;;;;;;;;;;;;;;;5092257;28;19919;-80
2023/01/23 07:34:25;;;;;;;;;;;;;;;;;;5092695;28;19920;-80
2023/01/23 07:36:50;;;;;;;;;;;;;;;;;;5076045;28;20019;-79
2023/01/23 07:39:15;;;;;;;;;;;;;;;;;;5095003;28;20325;-79
2023/01/23 07:41:40;;;;;;;;;;;;;;;;;;5106057;28;19912;-79
2023/01/23 07:44:05;;;;;;;;;;;;;;;;;;5092690;28;19915;-79
2023/01/23 07:46:30;;;;;;;;;;;;;;;;;;5092692;28;19957;-80
2023/01/23 07:48:55;;;;;;;;;;;;;;;;;;5092641;28;19919;-80
2023/01/23 07:51:21;;;;;;;;;;;;;;;;;;5092713;28;19908;-80
2023/01/23 07:53:46;;;;;;;;;;;;;;;;;;5073478;28;20274;-79
2023/01/23 07:56:12;;;;;;;;;;;;;;;;;;5074048;28;20420;-80
2023/01/23 07:58:37;;;;;;;;;;;;;;;;;;5092625;28;19914;-80
2023/01/23 08:01:02;;;;;;;;;;;;;;;;;;5092488;28;20422;-80
2023/01/23 08:03:28;;;;;;;;;;;;;;;;;;5083216;28;20001;-79
2023/01/23 08:05:54;;;;;;;;;;;;;;;;;;5092512;28;19915;-79
2023/01/23 08:08:19;;;;;;;;;;;;;;;;;;5091350;28;19916;-79
2023/01/23 08:10:44;;;;;;;;;;;;;;;;;;5092144;28;19959;-79
2023/01/23 08:13:09;;;;;;;;;;;;;;;;;;5070341;28;19913;-80
2023/01/23 08:15:34;;;;;;;;;;;;;;;;;;5054410;28;19912;-80
2023/01/23 08:17:59;;;;;;;;;;;;;;;;;;5072030;28;19908;-79
2023/01/23 08:20:24;;;;;;;;;;;;;;;;;;5057394;28;19948;-80
2023/01/23 08:22:49;;;;;;;;;;;;;;;;;;5088277;28;19919;-80
2023/01/23 08:25:15;;;;;;;;;;;;;;;;;;5071989;28;19916;-79
2023/01/23 08:27:40;;;;;;;;;;;;;;;;;;5090175;28;20011;-79
2023/01/23 08:30:05;;;;;;;;;;;;;;;;;;5089431;28;19924;-79
2023/01/23 08:32:30;;;;;;;;;;;;;;;;;;5073264;28;20370;-80
2023/01/23 08:34:55;;;;;;;;;;;;;;;;;;5072300;28;19920;-79
2023/01/23 08:37:21;;;;;;;;;;;;;;;;;;5084987;28;19920;-79
2023/01/23 08:39:46;;;;;;;;;;;;;;;;;;5071635;28;20002;-79
2023/01/23 08:42:11;;;;;;;;;;;;;;;;;;5072223;28;19920;-80
2023/01/23 08:44:36;;;;;;;;;;;;;;;;;;5069500;28;19927;-80
2023/01/23 08:47:02;;;;;;;;;;;;;;;;;;5067108;28;20389;-81
2023/01/23 08:49:27;;;;;;;;;;;;;;;;;;5071549;28;20079;-79
2023/01/23 08:51:52;;;;;;;;;;;;;;;;;;5071953;28;19919;-80
2023/01/23 08:54:17;;;;;;;;;;;;;;;;;;5075748;28;19987;-80
2023/01/23 08:56:42;;;;;;;;;;;;;;;;;;5063285;28;19920;-81
2023/01/23 08:59:08;;;;;;;;;;;;;;;;;;5090499;28;19943;-80
2023/01/23 09:01:33;;;;;;;;;;;;;;;;;;5071876;28;19978;-81
2023/01/23 09:03:58;;;;;;;;;;;;;;;;;;5071674;28;19916;-81
2023/01/23 09:06:23;;;;;;;;;;;;;;;;;;5087459;28;19912;-80
2023/01/23 09:08:48;;;;;;;;;;;;;;;;;;5073305;28;19951;-80
2023/01/23 09:11:13;;;;;;;;;;;;;;;;;;5060690;28;20286;-80
2023/01/23 09:13:38;;;;;;;;;;;;;;;;;;5071587;28;20255;-79
2023/01/23 09:16:04;;;;;;;;;;;;;;;;;;5089767;28;19920;-80
2023/01/23 09:18:29;;;;;;;;;;;;;;;;;;5091421;28;20259;-80
2023/01/23 09:20:54;;;;;;;;;;;;;;;;;;5089728;28;20324;-79
2023/01/23 09:23:19;;;;;;;;;;;;;;;;;;5072409;28;19912;-80
2023/01/23 09:25:44;;;;;;;;;;;;;;;;;;5077907;28;19920;-80
2023/01/23 09:28:09;;;;;;;;;;;;;;;;;;5074996;28;19912;-80
2023/01/23 09:30:35;;;;;;;;;;;;;;;;;;5082513;28;19920;-81
2023/01/23 09:33:00;;;;;;;;;;;;;;;;;;5080052;28;19919;-80
2023/01/23 09:35:26;;;;;;;;;;;;;;;;;;5074955;28;20445;-80
2023/01/23 09:38:00;;;;;;;;;;;;;;;;;;5090806;28;19912;-80
2023/01/23 09:40:25;;;;;;;;;;;;;;;;;;5089939;28;19924;-80
2023/01/23 09:42:50;;;;;;;;;;;;;;;;;;5074765;28;19912;-80
2023/01/23 09:45:15;;;;;;;;;;;;;;;;;;5081959;28;19922;-84
2023/01/23 09:47:40;;;;;;;;;;;;;;;;;;5093169;28;20033;-79
2023/01/23 09:50:06;;;;;;;;;;;;;;;;;;5092170;28;19942;-80
2023/01/23 09:52:31;;;;;;;;;;;;;;;;;;5074912;28;20294;-79
2023/01/23 09:54:56;;;;;;;;;;;;;;;;;;5074296;28;20267;-79
2023/01/23 09:57:21;;;;;;;;;;;;;;;;;;5074033;28;19986;-79
2023/01/23 09:59:46;;;;;;;;;;;;;;;;;;5093525;28;19965;-80
2023/01/23 10:02:12;;;;;;;;;;;;;;;;;;5080524;28;19912;-79
2023/01/23 10:04:37;;;;;;;;;;;;;;;;;;5090997;28;20007;-80
2023/01/23 10:07:02;;;;;;;;;;;;;;;;;;5070515;28;19913;-79
2023/01/23 10:09:27;;;;;;;;;;;;;;;;;;5070900;28;20280;-80
2023/01/23 10:11:52;;;;;;;;;;;;;;;;;;5078178;28;19928;-79
2023/01/23 10:14:19;;;;;;;;;;;;;;;;;;5061255;28;19959;-80
2023/01/23 10:16:44;;;;;;;;;;;;;;;;;;5071735;28;19912;-80
2023/01/23 10:19:10;;;;;;;;;;;;;;;;;;5073903;28;19919;-80
2023/01/23 10:21:35;;;;;;;;;;;;;;;;;;5074960;28;19916;-80
2023/01/23 10:24:00;;;;;;;;;;;;;;;;;;5087763;28;19916;-79
2023/01/23 10:26:25;;;;;;;;;;;;;;;;;;5091822;28;19913;-79
2023/01/23 10:28:50;;;;;;;;;;;;;;;;;;5071780;28;19918;-79
2023/01/23 10:31:15;;;;;;;;;;;;;;;;;;5073713;28;19964;-79
2023/01/23 10:33:40;;;;;;;;;;;;;;;;;;5093340;28;19916;-80
2023/01/23 10:36:05;;;;;;;;;;;;;;;;;;5025809;28;19922;-80
2023/01/23 10:38:31;;;;;;;;;;;;;;;;;;4985820;28;19914;-80
2023/01/23 10:41:18;;;;;;;;;;;;;;;;;;4987733;28;19922;-80
2023/01/23 10:43:43;;;;;;;;;;;;;;;;;;5049162;28;19940;-79
2023/01/23 10:46:08;;;;;;;;;;;;;;;;;;5051920;28;19918;-80
2023/01/23 10:48:34;;;;;;;;;;;;;;;;;;4984649;28;19920;-79
2023/01/23 10:50:59;;;;;;;;;;;;;;;;;;4990851;28;20303;-80
2023/01/23 10:53:24;;;;;;;;;;;;;;;;;;4980887;28;19960;-80
2023/01/23 10:55:49;;;;;;;;;;;;;;;;;;5020471;28;19914;-80
2023/01/23 10:58:15;;;;;;;;;;;;;;;;;;4987902;28;19918;-80
2023/01/23 11:00:40;;;;;;;;;;;;;;;;;;4989774;28;19913;-79
2023/01/23 11:03:05;;;;;;;;;;;;;;;;;;5037316;28;19914;-79
2023/01/23 11:05:30;;;;;;;;;;;;;;;;;;4989939;28;19914;-79
2023/01/23 11:07:55;;;;;;;;;;;;;;;;;;4986172;28;19914;-80
2023/01/23 11:10:20;;;;;;;;;;;;;;;;;;5050900;28;19964;-80
2023/01/23 11:12:45;;;;;;;;;;;;;;;;;;5017412;28;20006;-80
2023/01/23 11:15:11;;;;;;;;;;;;;;;;;;5051017;28;20304;-80
2023/01/23 11:17:36;;;;;;;;;;;;;;;;;;4979978;28;19918;-79
2023/01/23 11:20:01;;;;;;;;;;;;;;;;;;4983995;28;19917;-80
2023/01/23 11:22:26;;;;;;;;;;;;;;;;;;4994964;28;19982;-79
2023/01/23 11:24:51;;;;;;;;;;;;;;;;;;5054641;28;20379;-80
2023/01/23 11:27:16;;;;;;;;;;;;;;;;;;4990445;28;19941;-80
2023/01/23 11:29:42;;;;;;;;;;;;;;;;;;4990632;28;19920;-81
2023/01/23 11:32:07;;;;;;;;;;;;;;;;;;5047045;28;20001;-80
2023/01/23 11:34:33;;;;;;;;;;;;;;;;;;5001258;28;20280;-80
2023/01/23 11:36:58;;;;;;;;;;;;;;;;;;5060492;28;19916;-80
2023/01/23 11:39:23;;;;;;;;;;;;;;;;;;5074516;28;20487;-80
2023/01/23 11:41:48;;;;;;;;;;;;;;;;;;5069546;28;20405;-79
2023/01/23 11:44:13;;;;;;;;;;;;;;;;;;5074581;28;20290;-80
2023/01/23 11:46:38;;;;;;;;;;;;;;;;;;5074929;28;20247;-80
2023/01/23 11:49:04;;;;;;;;;;;;;;;;;;5092713;28;19991;-79
2023/01/23 11:51:29;;;;;;;;;;;;;;;;;;5074629;28;19955;-80
2023/01/23 11:53:54;;;;;;;;;;;;;;;;;;5091847;28;20362;-80
2023/01/23 11:56:20;;;;;;;;;;;;;;;;;;5074243;28;19916;-80
2023/01/23 11:58:45;;;;;;;;;;;;;;;;;;5092739;28;20388;-80
2023/01/23 12:01:10;;;;;;;;;;;;;;;;;;5092160;28;19908;-80
2023/01/23 12:03:35;;;;;;;;;;;;;;;;;;5073854;28;19916;-80
2023/01/23 12:06:00;;;;;;;;;;;;;;;;;;5071946;28;20389;-80
2023/01/23 12:08:25;;;;;;;;;;;;;;;;;;5096935;28;19913;-79
2023/01/23 12:10:51;;;;;;;;;;;;;;;;;;5089943;28;19939;-81
2023/01/23 12:13:16;;;;;;;;;;;;;;;;;;5071494;28;19919;-81
2023/01/23 12:15:41;;;;;;;;;;;;;;;;;;5072835;28;20367;-81
2023/01/23 12:18:06;;;;;;;;;;;;;;;;;;5072762;28;20002;-81
2023/01/23 12:20:31;;;;;;;;;;;;;;;;;;5069008;28;19955;-82
2023/01/23 12:22:56;;;;;;;;;;;;;;;;;;5091299;28;20358;-81
2023/01/23 12:25:21;;;;;;;;;;;;;;;;;;5072291;28;19912;-85
2023/01/23 12:27:47;;;;;;;;;;;;;;;;;;5071489;28;19919;-90
2023/01/23 12:30:12;;;;;;;;;;;;;;;;;;5064094;28;20011;-90
2023/01/23 12:32:40;;;;;;;;;;;;;;;;;;5071162;28;19913;-86
2023/01/23 12:35:05;;;;;;;;;;;;;;;;;;5071014;28;19924;-85
2023/01/23 12:37:30;;;;;;;;;;;;;;;;;;5063921;28;19919;-86
2023/01/23 12:39:55;;;;;;;;;;;;;;;;;;5075697;28;19912;-83
2023/01/23 12:42:21;;;;;;;;;;;;;;;;;;5064395;28;19962;-84
2023/01/23 12:44:46;;;;;;;;;;;;;;;;;;5073895;28;19912;-84
2023/01/23 12:47:11;;;;;;;;;;;;;;;;;;5072215;28;19947;-81
2023/01/23 12:49:36;;;;;;;;;;;;;;;;;;5088098;28;19969;-83
2023/01/23 12:52:01;;;;;;;;;;;;;;;;;;5074497;28;19912;-83
2023/01/23 12:54:26;;;;;;;;;;;;;;;;;;5081470;28;19918;-83
2023/01/23 12:56:52;;;;;;;;;;;;;;;;;;5075763;28;20358;-84
2023/01/23 12:59:17;;;;;;;;;;;;;;;;;;5073685;28;19915;-82
2023/01/23 13:01:42;;;;;;;;;;;;;;;;;;5072818;28;20263;-84
2023/01/23 13:04:07;;;;;;;;;;;;;;;;;;5075864;28;19912;-83
2023/01/23 13:06:33;;;;;;;;;;;;;;;;;;5078177;28;19916;-82
2023/01/23 13:08:58;;;;;;;;;;;;;;;;;;5086286;28;19916;-82
2023/01/23 13:11:39;;;;;;;;;;;;;;;;;;5092639;28;20694;-82
2023/01/23 13:14:04;;;;;;;;;;;;;;;;;;5065478;28;19916;-83
2023/01/23 13:16:29;;;;;;;;;;;;;;;;;;5057401;28;19957;-83
2023/01/23 13:27:06;;;;;;;;;;;;;;;;;;5074774;28;19915;-83
2023/01/23 13:29:31;;;;;;;;;;;;;;;;;;5076886;28;19912;-82
2023/01/23 13:31:57;;;;;;;;;;;;;;;;;;5078564;28;19919;-83
2023/01/23 13:34:23;;;;;;;;;;;;;;;;;;5074422;28;19923;-83
2023/01/23 13:36:48;;;;;;;;;;;;;;;;;;5063094;28;19940;-83
2023/01/23 13:39:13;;;;;;;;;;;;;;;;;;5058059;28;20355;-83
2023/01/23 13:41:38;;;;;;;;;;;;;;;;;;5058866;28;20003;-82
2023/01/23 13:44:04;;;;;;;;;;;;;;;;;;5075476;28;20282;-83
2023/01/23 13:46:29;;;;;;;;;;;;;;;;;;5083144;28;19996;-82
2023/01/23 13:51:38;;;;;;;;;;;;;;;;;;5078600;28;19969;-82
2023/01/23 13:56:48;;;;;;;;;;;;;;;;;;5089584;28;19919;-83
2023/01/23 13:59:13;;;;;;;;;;;;;;;;;;5068590;28;19912;-83
2023/01/23 14:07:06;;;;;;;;;;;;;;;;;;5089148;28;19922;-87
2023/01/23 14:09:31;;;;;;;;;;;;;;;;;;5074281;28;20313;-87
2023/01/23 14:11:56;;;;;;;;;;;;;;;;;;5071994;28;19919;-87
2023/01/23 14:17:12;;;;;;;;;;;;;;;;;;5077637;28;19912;-87
2023/01/23 14:19:38;;;;;;;;;;;;;;;;;;5073760;28;19916;-87
2023/01/23 14:22:03;;;;;;;;;;;;;;;;;;5091253;28;19912;-87
2023/01/23 14:24:28;;;;;;;;;;;;;;;;;;5090687;28;19916;-86
2023/01/23 14:26:53;;;;;;;;;;;;;;;;;;5074834;28;19913;-86
2023/01/23 14:29:18;;;;;;;;;;;;;;;;;;5072292;28;19919;-86
2023/01/23 14:31:44;;;;;;;;;;;;;;;;;;5074691;28;19954;-88
2023/01/23 14:34:11;;;;;;;;;;;;;;;;;;5072611;28;20037;-88
2023/01/23 14:36:36;;;;;;;;;;;;;;;;;;5074087;28;19916;-89
2023/01/23 14:39:01;;;;;;;;;;;;;;;;;;5091542;28;19913;-90
2023/01/23 14:41:27;;;;;;;;;;;;;;;;;;5071647;28;19916;-88
2023/01/23 14:43:52;;;;;;;;;;;;;;;;;;5071228;28;19912;-89
2023/01/23 14:46:17;;;;;;;;;;;;;;;;;;5074999;28;19908;-87
2023/01/23 14:48:42;;;;;;;;;;;;;;;;;;5070958;28;20332;-88
2023/01/23 14:51:07;;;;;;;;;;;;;;;;;;5091914;28;19967;-88
2023/01/23 14:53:33;;;;;;;;;;;;;;;;;;5069871;28;19913;-85
2023/01/23 14:55:59;;;;;;;;;;;;;;;;;;5070591;28;19916;-86
2023/01/23 14:58:24;;;;;;;;;;;;;;;;;;5067332;28;20394;-84
2023/01/23 15:00:50;;;;;;;;;;;;;;;;;;5073437;28;19963;-85
2023/01/23 15:03:15;;;;;;;;;;;;;;;;;;5077768;28;20283;-84
2023/01/23 15:05:40;;;;;;;;;;;;;;;;;;5074641;28;19999;-87
2023/01/23 15:08:06;;;;;;;;;;;;;;;;;;5088007;28;19920;-87
2023/01/23 15:10:31;;;;;;;;;;;;;;;;;;5073737;28;20366;-86
2023/01/23 15:12:56;;;;;;;;;;;;;;;;;;5069719;28;19930;-87
2023/01/23 15:15:21;;;;;;;;;;;;;;;;;;5075611;28;19981;-85
2023/01/23 15:17:46;;;;;;;;;;;;;;;;;;5074781;28;19912;-87
2023/01/23 15:20:11;;;;;;;;;;;;;;;;;;5072655;28;19912;-85
2023/01/23 15:22:37;;;;;;;;;;;;;;;;;;5088835;28;19922;-85
2023/01/23 15:25:02;;;;;;;;;;;;;;;;;;5091298;28;19920;-87
2023/01/23 15:27:30;;;;;;;;;;;;;;;;;;5075801;28;20259;-85
2023/01/23 15:29:55;;;;;;;;;;;;;;;;;;5071383;28;19916;-87
2023/01/23 15:32:21;;;;;;;;;;;;;;;;;;5068069;28;20412;-87
2023/01/23 15:34:46;;;;;;;;;;;;;;;;;;5072963;28;19920;-85
2023/01/23 15:37:11;;;;;;;;;;;;;;;;;;5069389;28;19919;-85
2023/01/23 15:39:36;;;;;;;;;;;;;;;;;;5074800;28;19912;-86
2023/01/23 15:42:01;;;;;;;;;;;;;;;;;;5080384;28;19919;-88
2023/01/23 15:44:29;;;;;;;;;;;;;;;;;;5074342;28;19912;-88
2023/01/23 15:46:54;;;;;;;;;;;;;;;;;;5082147;28;19961;-89
2023/01/23 15:49:19;;;;;;;;;;;;;;;;;;5073348;28;19920;-90
2023/01/23 15:51:44;;;;;;;;;;;;;;;;;;5070134;28;20287;-88
2023/01/23 15:54:09;;;;;;;;;;;;;;;;;;5088298;28;19916;-91
2023/01/23 15:56:35;;;;;;;;;;;;;;;;;;5086969;28;19912;-90
2023/01/23 15:59:01;;;;;;;;;;;;;;;;;;5086341;28;19939;-85
2023/01/23 16:01:26;;;;;;;;;;;;;;;;;;5071142;28;19920;-89
2023/01/23 16:03:51;;;;;;;;;;;;;;;;;;5074350;28;19912;-91
2023/01/23 16:06:17;;;;;;;;;;;;;;;;;;5080860;28;19966;-88
2023/01/23 16:08:42;;;;;;;;;;;;;;;;;;5076234;28;19912;-88
2023/01/23 16:11:07;;;;;;;;;;;;;;;;;;5060674;28;19969;-88
2023/01/23 16:13:32;;;;;;;;;;;;;;;;;;5058892;28;19912;-91
2023/01/23 16:15:57;;;;;;;;;;;;;;;;;;5079780;28;20308;-89
2023/01/23 16:18:22;;;;;;;;;;;;;;;;;;5064678;28;19938;-89
2023/01/23 16:20:51;;;;;;;;;;;;;;;;;;5060696;28;19910;-85
2023/01/23 16:23:16;;;;;;;;;;;;;;;;;;5092614;28;20003;-83
2023/01/23 16:25:41;;;;;;;;;;;;;;;;;;5091919;28;20006;-83
2023/01/23 16:28:07;;;;;;;;;;;;;;;;;;5077060;28;19916;-83
2023/01/23 16:30:35;;;;;;;;;;;;;;;;;;5077202;28;19912;-83
2023/01/23 16:33:18;;;;;;;;;;;;;;;;;;5094227;28;19913;-84
2023/01/23 16:35:46;;;;;;;;;;;;;;;;;;5060555;28;20021;-85
2023/01/23 16:38:11;;;;;;;;;;;;;;;;;;5052715;28;20344;-84
2023/01/23 16:40:36;;;;;;;;;;;;;;;;;;5065959;28;20012;-90
2023/01/23 16:43:04;;;;;;;;;;;;;;;;;;5057391;28;19921;-86
2023/01/23 16:45:29;;;;;;;;;;;;;;;;;;5077745;28;20009;-86
2023/01/23 16:47:58;;;;;;;;;;;;;;;;;;5060227;28;20359;-85
2023/01/23 16:50:25;;;;;;;;;;;;;;;;;;5072719;28;19922;-84
2023/01/23 16:52:50;;;;;;;;;;;;;;;;;;5076293;28;19999;-85
2023/01/23 16:55:16;;;;;;;;;;;;;;;;;;5073229;28;19948;-84
2023/01/23 16:57:41;;;;;;;;;;;;;;;;;;5077485;28;20280;-88
2023/01/23 17:00:07;;;;;;;;;;;;;;;;;;5072427;28;19914;-84
2023/01/23 17:02:32;;;;;;;;;;;;;;;;;;4999025;28;19926;-85